Time;durP1;ratioP1;P1;durP2;ratioP2;P2;SDS_P1;SDS_P2;PMS_P1;PMS_P2;Temp;Humidity;BMP_temperature;BMP_pressure;BME280_temperature;BME280_humidity;BME280_pressure;Samples;Min_cycle;Max_cycle;Signal;HPM_P1;HPM_P2
2022/08/22 00:01:10;;;;;;;6.65;1.25;;;20.80;90.00;;;;;;4916845;29;20632;-74
2022/08/22 00:03:45;;;;;;;3.45;0.30;;;20.90;88.40;;;;;;4914095;29;20036;-74
2022/08/22 00:06:33;;;;;;;0.30;0.20;;;21.10;89.40;;;;;;4916722;29;20040;-74
2022/08/22 00:09:11;;;;;;;0.63;0.20;;;21.50;86.90;;;;;;4897622;29;20311;-73
2022/08/22 00:12:16;;;;;;;1.30;0.30;;;21.80;86.00;;;;;;4899076;29;20090;-73
2022/08/22 00:15:24;;;;;;;0.65;0.30;;;21.60;85.70;;;;;;4916724;29;20468;-73
2022/08/22 00:18:17;;;;;;;1.85;0.20;;;21.50;85.80;;;;;;4911568;29;20071;-72
2022/08/22 00:21:05;;;;;;;1.00;0.30;;;21.70;85.00;;;;;;4917215;29;20084;-72
2022/08/22 00:23:44;;;;;;;0.30;0.22;;;21.90;84.50;;;;;;4915243;29;20665;-71
2022/08/22 00:26:11;;;;;;;1.10;0.20;;;22.20;83.50;;;;;;4916630;29;20040;-73
2022/08/22 00:28:48;;;;;;;0.10;0.10;;;22.70;84.60;;;;;;4914571;29;20043;-72
2022/08/22 00:31:25;;;;;;;4.10;0.20;;;23.10;81.80;;;;;;4913186;29;20105;-72
2022/08/22 00:34:11;;;;;;;0.50;0.30;;;23.30;81.10;;;;;;4916269;29;20044;-73
2022/08/22 00:36:45;;;;;;;0.73;0.17;;;23.30;81.00;;;;;;4914523;29;20028;-73
2022/08/22 00:39:24;;;;;;;0.30;0.10;;;23.50;82.10;;;;;;4916925;29;20091;-73
2022/08/22 00:42:00;;;;;;;0.63;0.20;;;23.40;80.30;;;;;;4914192;29;20383;-73
2022/08/22 00:45:00;;;;;;;1.30;0.20;;;23.40;80.90;;;;;;4915985;29;20076;-73
2022/08/22 00:48:04;;;;;;;1.05;0.20;;;23.10;80.70;;;;;;4877371;29;20463;-72
2022/08/22 00:51:07;;;;;;;2.00;0.30;;;22.80;82.10;;;;;;4915908;29;20052;-72
2022/08/22 00:54:09;;;;;;;0.40;0.20;;;22.60;82.50;;;;;;4914018;29;20047;-72
2022/08/22 00:57:10;;;;;;;1.77;0.45;;;22.70;82.70;;;;;;4819551;29;20038;-73
2022/08/22 00:59:46;;;;;;;1.38;0.40;;;23.40;83.10;;;;;;4897104;29;20108;-73
2022/08/22 01:02:31;;;;;;;2.05;0.20;;;23.80;81.00;;;;;;4902268;29;20036;-72
2022/08/22 01:05:19;;;;;;;1.00;0.40;;;24.00;79.10;;;;;;4914494;29;20071;-73
2022/08/22 01:08:27;;;;;;;0.50;0.20;;;23.80;80.10;;;;;;4913769;29;20036;-74
2022/08/22 01:11:28;;;;;;;0.32;0.17;;;24.20;79.50;;;;;;4916310;29;20150;-75
2022/08/22 01:14:04;;;;;;;0.85;0.20;;;24.40;78.80;;;;;;4896810;29;20028;-74
2022/08/22 01:16:50;;;;;;;0.63;0.30;;;24.40;79.00;;;;;;4910613;29;20348;-74
2022/08/22 01:19:40;;;;;;;0.35;0.20;;;24.30;78.20;;;;;;4912202;29;20107;-75
2022/08/22 01:22:35;;;;;;;1.17;0.20;;;24.60;78.30;;;;;;4909407;29;20107;-74
2022/08/22 01:25:17;;;;;;;0.50;0.30;;;24.70;77.70;;;;;;4915164;29;20036;-71
2022/08/22 01:28:13;;;;;;;0.80;0.20;;;24.80;77.70;;;;;;4904142;29;20052;-74
2022/08/22 01:31:17;;;;;;;2.08;0.43;;;24.90;78.00;;;;;;4933839;29;20106;-75
2022/08/22 01:33:56;;;;;;;0.55;0.10;;;24.60;77.00;;;;;;4914221;29;20517;-73
2022/08/22 01:36:43;;;;;;;0.38;0.10;;;24.90;77.10;;;;;;4913658;29;20039;-74
2022/08/22 01:39:30;;;;;;;2.38;0.28;;;25.00;77.70;;;;;;4896252;29;20060;-74
2022/08/22 01:42:36;;;;;;;0.80;0.10;;;25.30;77.50;;;;;;4886025;29;20401;-73
2022/08/22 01:45:29;;;;;;;0.15;0.10;;;25.40;75.20;;;;;;4914915;29;20047;-75
2022/08/22 01:48:34;;;;;;;0.40;0.20;;;25.40;75.20;;;;;;4907103;29;20448;-75
2022/08/22 01:51:13;;;;;;;0.50;0.13;;;25.50;74.40;;;;;;4856309;29;20515;-73
2022/08/22 01:53:59;;;;;;;0.80;0.28;;;25.80;74.00;;;;;;4906093;29;20401;-75
2022/08/22 01:56:34;;;;;;;1.55;0.50;;;25.20;72.50;;;;;;4908179;29;20383;-76
2022/08/22 01:59:05;;;;;;;;;;;24.90;74.00;;;;;;4896258;29;20036;-74
2022/08/22 02:01:45;;;;;;;0.30;0.10;;;25.00;74.40;;;;;;4896270;29;19922;-74
2022/08/22 02:04:15;;;;;;;0.75;0.10;;;25.30;73.20;;;;;;4916069;29;20024;-75
2022/08/22 02:07:23;;;;;;;0.30;0.10;;;25.40;72.70;;;;;;4912825;29;20036;-74
2022/08/22 02:10:20;;;;;;;0.45;0.20;;;26.10;73.00;;;;;;4819625;29;20087;-75
2022/08/22 02:12:53;;;;;;;0.15;0.00;;;26.60;71.80;;;;;;4912917;29;20175;-73
2022/08/22 02:15:40;;;;;;;0.45;0.17;;;26.40;70.80;;;;;;4913047;29;20413;-73
2022/08/22 02:18:11;;;;;;;3.63;0.22;;;25.70;71.10;;;;;;4900003;29;20582;-75
2022/08/22 02:20:38;;;;;;;1.48;0.20;;;25.60;70.70;;;;;;4907611;29;20058;-77
2022/08/22 02:23:22;;;;;;;0.30;0.10;;;25.50;70.60;;;;;;4912890;29;20343;-74
2022/08/22 02:26:25;;;;;;;0.68;0.10;;;25.40;69.70;;;;;;4897425;29;20040;-75
2022/08/22 02:28:58;;;;;;;0.00;0.00;;;25.50;68.60;;;;;;4914602;29;20028;-73
2022/08/22 02:31:47;;;;;;;1.45;0.20;;;25.20;68.80;;;;;;4913188;29;20520;-75
2022/08/22 02:34:31;;;;;;;1.75;0.15;;;25.10;68.80;;;;;;4895409;29;20547;-75
2022/08/22 02:37:04;;;;;;;1.30;0.38;;;25.30;69.80;;;;;;4899880;29;20658;-75
2022/08/22 02:39:51;;;;;;;0.00;0.00;;;25.50;69.00;;;;;;4914236;29;20126;-74
2022/08/22 02:42:55;;;;;;;0.50;0.10;;;25.30;67.20;;;;;;4912031;29;20375;-74
2022/08/22 02:45:47;;;;;;;0.95;0.20;;;25.70;68.60;;;;;;4914704;29;20119;-77
2022/08/22 02:48:45;;;;;;;1.27;0.00;;;25.60;67.10;;;;;;4912349;29;20467;-75
2022/08/22 02:51:47;;;;;;;0.98;0.10;;;25.50;68.00;;;;;;4914361;29;20460;-73
2022/08/22 02:54:33;;;;;;;0.28;0.28;;;26.20;67.70;;;;;;4881361;29;20028;-74
2022/08/22 02:57:23;;;;;;;0.50;0.10;;;25.90;66.60;;;;;;4913463;29;20028;-74
2022/08/22 03:00:25;;;;;;;0.10;0.00;;;25.90;67.10;;;;;;4914345;29;20099;-74
2022/08/22 03:02:59;;;;;;;0.13;0.10;;;26.30;66.90;;;;;;4912022;29;20202;-74
2022/08/22 03:05:38;;;;;;;0.43;0.20;;;26.40;66.60;;;;;;4916228;29;20040;-74
2022/08/22 03:08:18;;;;;;;0.73;0.10;;;26.10;65.60;;;;;;4915315;29;20135;-74
2022/08/22 03:11:12;;;;;;;0.30;0.10;;;25.80;66.90;;;;;;4918057;29;20042;-73
2022/08/22 03:14:07;;;;;;;1.45;0.10;;;26.20;66.30;;;;;;4915280;29;20035;-74
2022/08/22 03:16:38;;;;;;;0.20;0.00;;;26.30;66.00;;;;;;4914776;29;20032;-74
2022/08/22 03:19:23;;;;;;;0.70;0.20;;;26.20;66.00;;;;;;4910445;29;20028;-75
2022/08/22 03:22:20;;;;;;;0.28;0.10;;;26.30;66.40;;;;;;4915082;29;20028;-74
2022/08/22 03:25:18;;;;;;;0.10;0.08;;;25.70;65.10;;;;;;4917249;29;20418;-76
2022/08/22 03:27:52;;;;;;;0.20;0.20;;;25.30;65.70;;;;;;4915484;29;20028;-75
2022/08/22 03:30:21;;;;;;;0.10;0.10;;;24.80;66.20;;;;;;4917186;29;20435;-73
2022/08/22 03:33:10;;;;;;;0.88;0.45;;;24.70;66.80;;;;;;4914789;29;20040;-74
2022/08/22 03:35:46;;;;;;;0.22;0.10;;;24.60;67.00;;;;;;4917317;29;20024;-75
2022/08/22 03:38:20;;;;;;;0.65;0.00;;;25.00;66.50;;;;;;4915363;29;20047;-75
2022/08/22 03:40:53;;;;;;;0.30;0.20;;;25.10;66.10;;;;;;4917255;29;20032;-77
2022/08/22 03:43:39;;;;;;;0.20;0.00;;;25.00;66.90;;;;;;4913877;29;20399;-74
2022/08/22 03:46:23;;;;;;;;;;;24.40;67.30;;;;;;4913368;29;20040;-75
2022/08/22 03:49:12;;;;;;;1.05;0.10;;;23.90;68.10;;;;;;4916166;29;19911;-77
2022/08/22 03:51:40;;;;;;;0.25;0.00;;;23.80;68.20;;;;;;4914689;29;20395;-74
2022/08/22 03:54:31;;;;;;;0.20;0.13;;;23.60;68.30;;;;;;4916297;29;20036;-75
2022/08/22 03:57:40;;;;;;;0.40;0.20;;;23.70;68.20;;;;;;4914989;29;20097;-76
2022/08/22 04:00:17;;;;;;;0.45;0.10;;;23.80;68.30;;;;;;4816548;29;20062;-76
2022/08/22 04:03:03;;;;;;;0.88;0.20;;;24.00;66.60;;;;;;4897722;29;20115;-76
2022/08/22 04:05:49;;;;;;;0.30;0.15;;;23.80;68.30;;;;;;4897372;29;20488;-75
2022/08/22 04:08:22;;;;;;;0.30;0.10;;;23.80;67.80;;;;;;4911315;29;20036;-78
2022/08/22 04:11:20;;;;;;;1.85;0.15;;;23.60;67.70;;;;;;4916345;29;20110;-76
2022/08/22 04:14:28;;;;;;;0.98;0.20;;;23.50;68.10;;;;;;4915968;29;20435;-75
2022/08/22 04:17:19;;;;;;;0.45;0.10;;;23.60;68.10;;;;;;4863364;29;20126;-78
2022/08/22 04:20:14;;;;;;;0.22;0.03;;;23.80;68.40;;;;;;4916714;29;20087;-76
2022/08/22 04:23:05;;;;;;;0.10;0.00;;;23.80;69.40;;;;;;4909306;29;20360;-77
2022/08/22 04:25:56;;;;;;;0.70;0.10;;;23.90;69.50;;;;;;4916160;29;20037;-76
2022/08/22 04:28:42;;;;;;;0.75;0.00;;;24.20;69.20;;;;;;4914481;29;20071;-76
2022/08/22 04:31:17;;;;;;;1.30;0.10;;;24.20;69.50;;;;;;4916155;29;20053;-77
2022/08/22 04:34:06;;;;;;;0.08;0.00;;;23.90;69.30;;;;;;4915469;29;20032;-76
2022/08/22 04:36:53;;;;;;;0.00;0.00;;;23.80;69.40;;;;;;4915180;29;20035;-76
2022/08/22 04:40:00;;;;;;;0.43;0.10;;;23.80;69.90;;;;;;4916276;29;20490;-75
2022/08/22 04:42:31;;;;;;;;;;;23.80;69.40;;;;;;4915007;29;20030;-75
2022/08/22 04:45:05;;;;;;;0.20;0.00;;;23.70;70.00;;;;;;4916181;29;19962;-75
2022/08/22 04:47:49;;;;;;;0.50;0.10;;;23.50;69.60;;;;;;4913689;29;20143;-74
2022/08/22 04:50:31;;;;;;;0.43;0.05;;;23.40;70.60;;;;;;4915811;29;20028;-77
2022/08/22 04:53:17;;;;;;;0.13;0.10;;;23.20;70.30;;;;;;4914924;29;20481;-75
2022/08/22 04:55:53;;;;;;;0.00;0.00;;;23.00;70.10;;;;;;4915674;29;20513;-75
2022/08/22 04:58:43;;;;;;;0.00;0.00;;;22.90;69.80;;;;;;4914057;29;20504;-76
2022/08/22 05:01:22;;;;;;;0.28;0.00;;;22.80;70.20;;;;;;4915742;29;20035;-74
2022/08/22 05:03:53;;;;;;;0.10;0.10;;;22.80;70.70;;;;;;4915540;29;20036;-75
2022/08/22 05:06:25;;;;;;;1.02;0.15;;;22.70;70.20;;;;;;4914713;29;20052;-75
2022/08/22 05:08:53;;;;;;;0.20;0.00;;;22.70;69.90;;;;;;4913844;29;20431;-74
2022/08/22 05:11:23;;;;;;;1.20;0.00;;;22.60;70.70;;;;;;4915026;29;20031;-74
2022/08/22 05:14:11;;;;;;;1.17;0.10;;;22.50;70.70;;;;;;4896864;29;20071;-74
2022/08/22 05:16:42;;;;;;;0.40;0.00;;;22.40;70.60;;;;;;4911309;29;20032;-76
2022/08/22 05:19:33;;;;;;;1.90;0.10;;;22.30;70.70;;;;;;4915427;29;20120;-74
2022/08/22 05:22:02;;;;;;;0.90;0.10;;;22.20;70.40;;;;;;4912336;29;20032;-75
2022/08/22 05:24:41;;;;;;;0.10;0.00;;;22.20;70.90;;;;;;4915367;29;20032;-75
2022/08/22 05:27:23;;;;;;;1.65;0.20;;;22.20;71.00;;;;;;4911149;29;20112;-75
2022/08/22 05:29:57;;;;;;;0.22;0.08;;;22.10;70.90;;;;;;4913489;29;20099;-75
2022/08/22 05:32:35;;;;;;;0.00;0.00;;;22.10;71.40;;;;;;4913346;29;20372;-74
2022/08/22 05:35:05;;;;;;;0.10;0.05;;;22.00;71.20;;;;;;4914944;29;20121;-75
2022/08/22 05:37:42;;;;;;;0.10;0.05;;;21.90;70.10;;;;;;4913471;29;20024;-75
2022/08/22 05:40:18;;;;;;;0.30;0.00;;;21.90;70.50;;;;;;4914597;29;20118;-75
2022/08/22 05:42:46;;;;;;;0.03;0.00;;;21.90;70.80;;;;;;4913384;29;20047;-73
2022/08/22 05:45:16;;;;;;;0.70;0.10;;;21.90;70.60;;;;;;4898253;29;20040;-76
2022/08/22 05:47:48;;;;;;;0.20;0.10;;;21.80;70.80;;;;;;4912975;29;20036;-76
2022/08/22 05:50:39;;;;;;;0.10;0.10;;;21.90;70.80;;;;;;4914611;29;20546;-75
2022/08/22 05:53:13;;;;;;;0.17;0.00;;;21.80;70.60;;;;;;4912256;29;20056;-74
2022/08/22 05:55:51;;;;;;;0.47;0.00;;;21.80;70.60;;;;;;4914815;29;20032;-74
2022/08/22 05:58:26;;;;;;;2.08;0.13;;;21.80;70.60;;;;;;4911947;29;20032;-77
2022/08/22 06:01:19;;;;;;;1.83;0.10;;;21.70;70.70;;;;;;4915254;29;20035;-78
2022/08/22 06:04:21;;;;;;;0.20;0.10;;;21.60;70.80;;;;;;4914220;29;20267;-78
2022/08/22 06:07:17;;;;;;;0.30;0.10;;;21.50;70.70;;;;;;4913060;29;20040;-75
2022/08/22 06:09:48;;;;;;;0.20;0.10;;;21.30;70.50;;;;;;4906979;29;20325;-76
2022/08/22 06:12:31;;;;;;;0.55;0.08;;;21.30;70.80;;;;;;4909707;29;20051;-76
2022/08/22 06:15:11;;;;;;;0.00;0.00;;;21.20;71.10;;;;;;4899940;29;20519;-78
2022/08/22 06:17:42;;;;;;;0.20;0.10;;;21.10;71.40;;;;;;4913776;29;20107;-77
2022/08/22 06:20:16;;;;;;;0.25;0.20;;;21.10;71.90;;;;;;4915226;29;20028;-76
2022/08/22 06:22:53;;;;;;;0.10;0.00;;;21.00;71.60;;;;;;4913473;29;20036;-75
2022/08/22 06:25:32;;;;;;;0.50;0.15;;;20.90;71.50;;;;;;4914863;29;20037;-77
2022/08/22 06:28:07;;;;;;;1.67;0.13;;;20.80;72.20;;;;;;4913102;29;20040;-77
2022/08/22 06:30:38;;;;;;;0.00;0.00;;;20.60;72.70;;;;;;4914913;29;20108;-78
2022/08/22 06:33:11;;;;;;;0.82;0.30;;;20.60;72.50;;;;;;4912655;29;20295;-74
2022/08/22 06:38:51;;;;;;;1.05;0.00;;;20.20;72.50;;;;;;4913364;29;20087;-74
2022/08/22 06:41:21;;;;;;;0.10;0.10;;;20.10;73.30;;;;;;4918452;29;20476;-76
2022/08/22 06:43:51;;;;;;;0.30;0.10;;;19.80;73.70;;;;;;4917237;29;20036;-76
2022/08/22 06:46:21;;;;;;;0.13;0.00;;;19.70;74.10;;;;;;4917502;29;20044;-75
2022/08/22 06:48:50;;;;;;;0.20;0.10;;;19.60;74.20;;;;;;4918310;29;20106;-77
2022/08/22 06:51:20;;;;;;;0.47;0.08;;;19.60;74.20;;;;;;4918661;29;20028;-74
2022/08/22 06:53:53;;;;;;;0.25;0.10;;;19.40;74.50;;;;;;4917862;29;20475;-76
2022/08/22 06:56:48;;;;;;;0.10;0.00;;;19.40;74.80;;;;;;4916322;29;20393;-75
2022/08/22 06:59:20;;;;;;;0.20;0.20;;;19.40;74.80;;;;;;4898436;29;20047;-75
2022/08/22 07:01:56;;;;;;;0.20;0.10;;;19.30;75.20;;;;;;4901167;29;20511;-74
2022/08/22 07:04:25;;;;;;;0.43;0.20;;;19.20;75.20;;;;;;4918430;29;20092;-74
2022/08/22 07:06:55;;;;;;;0.65;0.10;;;19.10;75.50;;;;;;4915693;29;20040;-74
2022/08/22 07:09:27;;;;;;;0.25;0.10;;;18.90;75.70;;;;;;4918337;29;20732;-74
2022/08/22 07:11:57;;;;;;;0.77;0.30;;;18.70;76.00;;;;;;4916195;29;20035;-75
2022/08/22 07:14:32;;;;;;;1.38;0.10;;;18.50;76.40;;;;;;4917991;29;20034;-75
2022/08/22 07:17:03;;;;;;;0.03;0.00;;;18.30;76.70;;;;;;4902173;29;20032;-74
2022/08/22 07:19:40;;;;;;;0.35;0.10;;;18.20;77.10;;;;;;4905820;29;20070;-74
2022/08/22 07:22:23;;;;;;;0.10;0.03;;;18.10;78.00;;;;;;4915939;29;20122;-75
2022/08/22 07:24:59;;;;;;;0.60;0.20;;;18.00;77.70;;;;;;4917461;29;20056;-74
2022/08/22 07:27:30;;;;;;;1.05;0.30;;;17.90;77.80;;;;;;4916638;29;20413;-75
2022/08/22 07:30:11;;;;;;;0.32;0.28;;;17.80;77.90;;;;;;4917139;29;20119;-77
2022/08/22 07:32:47;;;;;;;0.65;0.30;;;17.70;77.70;;;;;;4915785;29;20036;-75
2022/08/22 07:35:20;;;;;;;1.95;0.10;;;17.60;77.90;;;;;;4917426;29;20127;-76
2022/08/22 07:38:12;;;;;;;0.20;0.10;;;17.60;78.00;;;;;;4915657;29;20075;-74
2022/08/22 07:40:40;;;;;;;0.13;0.10;;;17.50;78.10;;;;;;4917825;29;20222;-75
2022/08/22 07:43:30;;;;;;;0.30;0.10;;;17.40;78.30;;;;;;4916039;29;20036;-77
2022/08/22 07:46:02;;;;;;;0.90;0.10;;;17.30;78.60;;;;;;4903044;29;20048;-75
2022/08/22 07:48:52;;;;;;;0.95;0.30;;;17.20;78.00;;;;;;4916037;29;20024;-75
2022/08/22 07:51:34;;;;;;;0.17;0.10;;;17.20;77.60;;;;;;4915544;29;20032;-75
2022/08/22 07:54:14;;;;;;;0.35;0.10;;;17.20;77.40;;;;;;4881566;29;20029;-74
2022/08/22 07:56:58;;;;;;;0.60;0.40;;;17.20;77.60;;;;;;4900054;29;20033;-74
2022/08/22 07:59:27;;;;;;;0.32;0.10;;;17.20;77.70;;;;;;4917634;29;20036;-73
2022/08/22 08:01:59;;;;;;;0.22;0.00;;;17.20;77.30;;;;;;4915044;29;20036;-74
2022/08/22 08:04:32;;;;;;;2.08;0.15;;;17.20;77.60;;;;;;4917157;29;20024;-74
2022/08/22 08:07:02;;;;;;;0.68;0.10;;;17.10;77.70;;;;;;4915383;29;20036;-75
2022/08/22 08:09:33;;;;;;;0.50;0.10;;;17.00;77.60;;;;;;4903062;29;20052;-76
2022/08/22 08:12:04;;;;;;;2.22;0.60;;;17.10;78.00;;;;;;4901911;29;20024;-74
2022/08/22 08:14:36;;;;;;;0.95;0.30;;;17.00;78.10;;;;;;4916801;29;20138;-75
2022/08/22 08:17:11;;;;;;;2.65;0.20;;;17.00;78.10;;;;;;4914864;29;20035;-75
2022/08/22 08:19:41;;;;;;;0.70;0.20;;;16.90;78.50;;;;;;4916724;29;20111;-76
2022/08/22 08:22:15;;;;;;;0.13;0.10;;;16.80;78.50;;;;;;4913051;29;20032;-76
2022/08/22 08:24:44;;;;;;;0.82;0.73;;;16.70;78.80;;;;;;4916332;29;20071;-75
2022/08/22 08:30:23;;;;;;;1.25;0.30;;;16.70;79.10;;;;;;4916543;29;20051;-75
2022/08/22 08:32:59;;;;;;;0.45;0.20;;;16.60;79.20;;;;;;4914828;29;20024;-76
2022/08/22 08:35:31;;;;;;;1.23;0.50;;;16.60;79.30;;;;;;4916965;29;20044;-75
2022/08/22 08:38:26;;;;;;;0.40;0.32;;;16.60;79.40;;;;;;4914642;29;20476;-76
2022/08/22 08:41:32;;;;;;;0.40;0.30;;;16.50;79.50;;;;;;4916381;29;20111;-75
2022/08/22 08:44:26;;;;;;;0.40;0.23;;;16.50;79.50;;;;;;4897708;29;20116;-76
2022/08/22 08:47:15;;;;;;;0.80;0.30;;;16.40;79.80;;;;;;4900870;29;20042;-75
2022/08/22 08:49:46;;;;;;;1.92;0.75;;;16.30;80.00;;;;;;4916170;29;20028;-77
2022/08/22 08:52:43;;;;;;;1.25;0.70;;;16.20;80.20;;;;;;4904944;29;20391;-76
2022/08/22 08:55:47;;;;;;;1.90;0.25;;;16.20;80.40;;;;;;4916157;29;20032;-76
2022/08/22 08:58:17;;;;;;;1.05;0.40;;;16.10;80.90;;;;;;4914150;29;20060;-75
2022/08/22 09:01:03;;;;;;;1.10;0.32;;;16.00;81.20;;;;;;4915758;29;20447;-77
2022/08/22 09:03:51;;;;;;;1.77;0.82;;;16.00;81.30;;;;;;4913789;29;20502;-75
2022/08/22 09:06:27;;;;;;;1.83;0.60;;;16.00;81.40;;;;;;4915221;29;20047;-76
2022/08/22 09:09:24;;;;;;;1.30;0.52;;;15.90;81.80;;;;;;4911068;29;20515;-77
2022/08/22 09:11:57;;;;;;;0.82;0.50;;;15.80;82.00;;;;;;4901944;29;20483;-75
2022/08/22 09:15:12;;;;;;;1.35;0.47;;;15.80;82.60;;;;;;4896994;29;20027;-77
2022/08/22 09:18:20;;;;;;;0.88;0.60;;;15.70;83.00;;;;;;4853418;29;20405;-76
2022/08/22 09:21:18;;;;;;;6.35;4.43;;;15.50;83.20;;;;;;4892903;29;20071;-76
2022/08/22 09:24:13;;;;;;;2.72;2.03;;;15.40;84.00;;;;;;4915059;29;20107;-76
2022/08/22 09:26:57;;;;;;;1.23;0.95;;;15.30;85.30;;;;;;4914545;29;20037;-75
2022/08/22 09:29:31;;;;;;;1.25;0.43;;;15.10;84.60;;;;;;4915648;29;20060;-75
2022/08/22 09:32:11;;;;;;;1.15;0.45;;;15.10;84.70;;;;;;4913748;29;20484;-75
2022/08/22 09:34:50;;;;;;;1.00;0.55;;;15.00;85.10;;;;;;4915715;29;20035;-75
2022/08/22 09:37:29;;;;;;;1.45;0.60;;;14.90;85.50;;;;;;4911862;29;20028;-75
2022/08/22 09:40:03;;;;;;;1.05;0.40;;;14.80;86.50;;;;;;4901295;29;20120;-76
2022/08/22 09:42:44;;;;;;;0.60;0.50;;;14.70;87.00;;;;;;4906020;29;20060;-76
2022/08/22 09:45:32;;;;;;;1.17;0.60;;;14.60;87.20;;;;;;4915499;29;20032;-76
2022/08/22 09:48:01;;;;;;;1.83;0.80;;;14.70;84.90;;;;;;4913480;29;20377;-76
2022/08/22 09:50:48;;;;;;;2.28;0.75;;;14.80;85.40;;;;;;4915380;29;20091;-77
2022/08/22 09:53:36;;;;;;;1.92;0.98;;;14.90;85.20;;;;;;4914364;29;20036;-75
2022/08/22 09:56:07;;;;;;;1.33;0.75;;;14.80;85.40;;;;;;4915426;29;20111;-77
2022/08/22 09:58:42;;;;;;;1.55;0.52;;;14.70;85.10;;;;;;4914445;29;20035;-77
2022/08/22 10:01:29;;;;;;;2.30;0.68;;;14.60;86.30;;;;;;4915196;29;20123;-75
2022/08/22 10:04:21;;;;;;;2.58;0.75;;;14.50;86.20;;;;;;4896323;29;20032;-75
2022/08/22 10:07:03;;;;;;;1.55;0.80;;;14.40;86.70;;;;;;4898197;29;20392;-76
2022/08/22 10:09:52;;;;;;;1.95;1.10;;;14.30;87.10;;;;;;4915071;29;20052;-75
2022/08/22 10:12:30;;;;;;;3.00;1.50;;;14.10;88.40;;;;;;4912808;29;20036;-76
2022/08/22 10:15:11;;;;;;;4.40;1.10;;;14.00;88.80;;;;;;4914256;29;20558;-75
2022/08/22 10:17:57;;;;;;;2.35;0.95;;;13.90;88.90;;;;;;4910123;29;20045;-76
2022/08/22 10:20:35;;;;;;;1.13;0.50;;;13.80;90.10;;;;;;4915001;29;20052;-76
2022/08/22 10:23:03;;;;;;;0.93;0.50;;;13.70;90.00;;;;;;4913022;29;20063;-76
2022/08/22 10:25:52;;;;;;;1.40;1.02;;;13.60;90.40;;;;;;4914736;29;20044;-75
2022/08/22 10:28:44;;;;;;;1.73;0.88;;;13.50;90.70;;;;;;4912674;29;20035;-75
2022/08/22 10:31:14;;;;;;;1.25;0.60;;;13.40;90.90;;;;;;4914986;29;20040;-75
2022/08/22 10:34:00;;;;;;;0.98;0.52;;;13.30;91.10;;;;;;4923504;29;20031;-75
2022/08/22 10:36:44;;;;;;;1.10;0.60;;;13.30;91.20;;;;;;4930852;29;20039;-75
2022/08/22 10:39:21;;;;;;;3.35;1.20;;;13.20;91.20;;;;;;4895830;29;20060;-76
2022/08/22 10:42:08;;;;;;;1.33;0.60;;;13.20;91.20;;;;;;4898536;29;20024;-76
2022/08/22 10:45:17;;;;;;;0.73;0.70;;;13.10;91.40;;;;;;4915005;29;20028;-76
2022/08/22 10:47:54;;;;;;;1.33;0.63;;;13.00;91.50;;;;;;4912931;29;20395;-77
2022/08/22 10:50:37;;;;;;;1.20;0.73;;;12.90;91.50;;;;;;4915390;29;20607;-76
2022/08/22 10:53:32;;;;;;;2.67;0.70;;;12.90;91.70;;;;;;4913307;29;20055;-76
2022/08/22 10:56:11;;;;;;;1.98;0.57;;;13.00;92.10;;;;;;4908836;29;20044;-77
2022/08/22 10:58:53;;;;;;;1.00;0.60;;;13.00;92.10;;;;;;4912524;29;20043;-77
2022/08/22 11:01:28;;;;;;;2.22;1.05;;;13.10;91.80;;;;;;4914067;29;20078;-76
2022/08/22 11:04:06;;;;;;;2.13;0.77;;;13.10;92.00;;;;;;4895929;29;20432;-76
2022/08/22 11:06:45;;;;;;;2.55;0.85;;;13.20;91.70;;;;;;4896917;29;20063;-76
2022/08/22 11:09:27;;;;;;;2.25;0.95;;;13.20;91.90;;;;;;4914519;29;20064;-76
2022/08/22 11:12:09;;;;;;;2.08;1.20;;;13.20;91.50;;;;;;4912982;29;20108;-77
2022/08/22 11:14:52;;;;;;;2.72;0.95;;;13.20;91.50;;;;;;4893863;29;20031;-77
2022/08/22 11:17:43;;;;;;;2.47;1.10;;;13.20;91.70;;;;;;4912997;29;20036;-76
2022/08/22 11:20:20;;;;;;;4.53;1.20;;;13.20;92.00;;;;;;4914491;29;20032;-77
2022/08/22 11:22:57;;;;;;;4.13;1.00;;;13.20;92.30;;;;;;4912799;29;20499;-77
2022/08/22 11:25:40;;;;;;;3.10;1.13;;;13.20;92.20;;;;;;4916085;29;20040;-76
2022/08/22 11:28:27;;;;;;;2.42;1.27;;;13.20;92.30;;;;;;4916254;29;20122;-76
2022/08/22 11:31:45;;;;;;;2.20;1.30;;;13.10;92.10;;;;;;4918109;29;20024;-76
2022/08/22 11:34:24;;;;;;;4.03;1.70;;;13.10;92.30;;;;;;4822510;29;20208;-74
2022/08/22 11:37:03;;;;;;;5.13;2.00;;;13.20;92.00;;;;;;4821488;29;20043;-75
2022/08/22 11:40:04;;;;;;;3.13;2.03;;;13.20;91.90;;;;;;4878903;29;20040;-77
2022/08/22 11:42:43;;;;;;;4.13;1.85;;;13.20;92.00;;;;;;4880054;29;20115;-75
2022/08/22 11:45:21;;;;;;;3.15;1.88;;;13.30;92.00;;;;;;4917624;29;20063;-76
2022/08/22 11:48:08;;;;;;;4.70;1.83;;;13.30;91.70;;;;;;4915996;29;20112;-75
2022/08/22 11:50:49;;;;;;;3.20;1.30;;;13.20;91.80;;;;;;4917674;29;20036;-76
2022/08/22 11:53:36;;;;;;;5.32;1.50;;;13.10;91.70;;;;;;4916166;29;20502;-77
2022/08/22 11:56:21;;;;;;;3.28;1.40;;;13.00;92.40;;;;;;4917397;29;20040;-76
2022/08/22 11:58:52;;;;;;;4.93;1.30;;;12.90;92.30;;;;;;4917551;29;20032;-75
2022/08/22 12:01:32;;;;;;;3.55;1.20;;;12.70;92.50;;;;;;4899399;29;20028;-76
2022/08/22 12:04:07;;;;;;;2.10;0.95;;;12.60;92.50;;;;;;4898156;29;20380;-75
2022/08/22 12:06:38;;;;;;;3.67;1.50;;;12.60;92.80;;;;;;4898612;29;20040;-77
2022/08/22 12:09:26;;;;;;;2.67;0.95;;;12.50;92.90;;;;;;4900293;29;20097;-76
2022/08/22 12:12:14;;;;;;;1.77;0.75;;;12.40;92.90;;;;;;4914831;29;20116;-76
2022/08/22 12:14:52;;;;;;;1.38;0.88;;;12.40;92.60;;;;;;4863774;29;20103;-77
2022/08/22 12:17:41;;;;;;;1.58;0.70;;;12.50;92.50;;;;;;4915366;29;20043;-75
2022/08/22 12:20:26;;;;;;;1.33;0.45;;;12.60;92.40;;;;;;4916774;29;20091;-77
2022/08/22 12:23:12;;;;;;;0.93;0.63;;;12.80;92.30;;;;;;4909177;29;20048;-76
2022/08/22 12:26:14;;;;;;;1.08;0.43;;;12.90;92.00;;;;;;4916613;29;20036;-77
2022/08/22 12:29:11;;;;;;;2.45;0.90;;;13.00;91.80;;;;;;4914877;29;20036;-75
2022/08/22 12:32:03;;;;;;;1.40;0.40;;;13.00;91.60;;;;;;4915817;29;20143;-75
2022/08/22 12:34:36;;;;;;;0.63;0.45;;;13.10;91.60;;;;;;4917044;29;20044;-76
2022/08/22 12:37:28;;;;;;;0.63;0.20;;;13.20;91.40;;;;;;4898195;29;20054;-76
2022/08/22 12:40:21;;;;;;;1.20;0.30;;;13.40;91.00;;;;;;4916534;29;20031;-77
2022/08/22 12:42:48;;;;;;;0.45;0.22;;;13.60;91.10;;;;;;4914986;29;20028;-76
2022/08/22 12:45:52;;;;;;;0.68;0.30;;;13.70;90.90;;;;;;4916087;29;20032;-76
2022/08/22 12:48:44;;;;;;;1.05;0.73;;;13.80;90.50;;;;;;4914618;29;20351;-76
2022/08/22 12:51:30;;;;;;;0.38;0.10;;;13.80;90.50;;;;;;4916515;29;20160;-76
2022/08/22 12:54:34;;;;;;;1.10;0.30;;;13.80;90.60;;;;;;4897530;29;20040;-74
2022/08/22 12:57:20;;;;;;;0.38;0.10;;;13.80;90.60;;;;;;4901045;29;20092;-75
2022/08/22 12:59:52;;;;;;;0.50;0.30;;;13.80;90.50;;;;;;4915952;29;20028;-75
2022/08/22 13:02:33;;;;;;;0.10;0.10;;;14.00;90.60;;;;;;4914447;29;20036;-75
2022/08/22 13:05:18;;;;;;;2.55;0.28;;;14.00;90.40;;;;;;4915790;29;20028;-76
2022/08/22 13:08:01;;;;;;;0.68;0.30;;;14.10;90.20;;;;;;4906673;29;20111;-76
2022/08/22 13:11:00;;;;;;;1.40;0.20;;;14.10;89.80;;;;;;4915655;29;20032;-75
2022/08/22 13:13:34;;;;;;;0.93;0.28;;;14.20;90.10;;;;;;4854273;29;20543;-75
2022/08/22 13:16:05;;;;;;;0.85;0.25;;;14.20;89.70;;;;;;4908502;29;20483;-77
2022/08/22 13:18:45;;;;;;;0.60;0.20;;;14.20;89.90;;;;;;4914195;29;20084;-77
2022/08/22 13:21:17;;;;;;;1.27;0.20;;;14.20;89.40;;;;;;4915831;29;20175;-75
2022/08/22 13:23:53;;;;;;;0.75;0.20;;;14.20;88.90;;;;;;4915453;29;20131;-76
2022/08/22 13:26:25;;;;;;;0.52;0.35;;;14.30;88.90;;;;;;4914663;29;20036;-77
2022/08/22 13:29:19;;;;;;;0.20;0.10;;;14.20;88.90;;;;;;4915271;29;20028;-77
2022/08/22 13:31:53;;;;;;;1.70;0.55;;;14.20;89.10;;;;;;4913925;29;20026;-76
2022/08/22 13:34:26;;;;;;;0.90;0.40;;;14.20;89.30;;;;;;4896659;29;20165;-77
2022/08/22 13:36:58;;;;;;;1.75;0.20;;;14.20;89.80;;;;;;4899763;29;20025;-75
2022/08/22 13:39:37;;;;;;;0.17;0.05;;;14.10;89.90;;;;;;4916223;29;20359;-77
2022/08/22 13:42:06;;;;;;;0.55;0.30;;;14.10;90.10;;;;;;4913609;29;20092;-76
2022/08/22 13:44:42;;;;;;;0.55;0.10;;;14.10;90.10;;;;;;4915218;29;20482;-78
2022/08/22 13:47:19;;;;;;;1.05;0.20;;;14.00;90.20;;;;;;4913667;29;20036;-78
2022/08/22 13:50:01;;;;;;;0.45;0.22;;;14.10;90.00;;;;;;4913421;29;20056;-77
2022/08/22 13:52:42;;;;;;;1.45;0.28;;;14.10;90.20;;;;;;4913958;29;20146;-78
2022/08/22 13:55:33;;;;;;;1.10;0.20;;;14.20;90.20;;;;;;4915512;29;20029;-78
2022/08/22 13:58:09;;;;;;;1.45;0.52;;;14.30;90.10;;;;;;4913509;29;20072;-76
2022/08/22 14:01:05;;;;;;;2.38;0.40;;;14.30;90.10;;;;;;4914960;29;20453;-76
2022/08/22 14:03:49;;;;;;;0.40;0.30;;;14.30;90.30;;;;;;4896150;29;20108;-77
2022/08/22 14:06:54;;;;;;;1.05;0.20;;;14.30;90.50;;;;;;4896028;29;20044;-77
2022/08/22 14:09:34;;;;;;;1.15;0.50;;;14.20;90.80;;;;;;4864335;29;20408;-77
2022/08/22 14:12:22;;;;;;;3.47;0.60;;;14.20;90.70;;;;;;4899506;29;20040;-77
2022/08/22 14:15:00;;;;;;;0.50;0.17;;;14.10;90.80;;;;;;4915491;29;20107;-77